sensor_id;sensor_type;location;lat;lon;timestamp;P1;durP1;ratioP1;P2;durP2;ratioP2
20090;SDS011;10205;49.678;6.560;2022-07-25T00:00:40;4.40;;;4.00;;
20090;SDS011;10205;49.678;6.560;2022-07-25T00:03:11;3.83;;;3.53;;
20090;SDS011;10205;49.678;6.560;2022-07-25T02:20:18;3.38;;;3.15;;
20090;SDS011;10205;49.678;6.560;2022-07-25T02:28:08;3.80;;;3.50;;
20090;SDS011;10205;49.678;6.560;2022-07-25T03:04:14;3.60;;;3.30;;
20090;SDS011;10205;49.678;6.560;2022-07-25T03:11:31;3.97;;;3.58;;
20090;SDS011;10205;49.678;6.560;2022-07-25T03:14:49;3.78;;;3.47;;
20090;SDS011;10205;49.678;6.560;2022-07-25T03:30:15;3.40;;;3.10;;
20090;SDS011;10205;49.678;6.560;2022-07-25T03:33:18;4.15;;;3.47;;
20090;SDS011;10205;49.678;6.560;2022-07-25T03:36:25;3.78;;;3.30;;
20090;SDS011;10205;49.678;6.560;2022-07-25T03:39:34;3.78;;;3.47;;
20090;SDS011;10205;49.678;6.560;2022-07-25T04:05:03;3.67;;;3.38;;
20090;SDS011;10205;49.678;6.560;2022-07-25T04:08:40;3.70;;;3.40;;
20090;SDS011;10205;49.678;6.560;2022-07-25T04:22:14;3.60;;;3.30;;
20090;SDS011;10205;49.678;6.560;2022-07-25T04:24:41;4.38;;;3.50;;
20090;SDS011;10205;49.678;6.560;2022-07-25T04:27:08;4.30;;;3.90;;
20090;SDS011;10205;49.678;6.560;2022-07-25T04:29:37;4.07;;;3.60;;
20090;SDS011;10205;49.678;6.560;2022-07-25T04:32:06;3.80;;;3.40;;
20090;SDS011;10205;49.678;6.560;2022-07-25T04:34:33;4.03;;;3.72;;
20090;SDS011;10205;49.678;6.560;2022-07-25T04:37:01;4.05;;;3.60;;
20090;SDS011;10205;49.678;6.560;2022-07-25T04:39:29;6.10;;;3.58;;
20090;SDS011;10205;49.678;6.560;2022-07-25T04:41:57;4.05;;;3.70;;
20090;SDS011;10205;49.678;6.560;2022-07-25T04:44:24;4.00;;;3.60;;
20090;SDS011;10205;49.678;6.560;2022-07-25T04:46:52;4.05;;;3.75;;
20090;SDS011;10205;49.678;6.560;2022-07-25T04:49:20;4.10;;;3.70;;
20090;SDS011;10205;49.678;6.560;2022-07-25T04:51:47;3.70;;;3.40;;
20090;SDS011;10205;49.678;6.560;2022-07-25T04:54:14;3.70;;;3.40;;
20090;SDS011;10205;49.678;6.560;2022-07-25T04:56:43;4.20;;;3.80;;
20090;SDS011;10205;49.678;6.560;2022-07-25T04:59:10;5.53;;;3.40;;
20090;SDS011;10205;49.678;6.560;2022-07-25T05:01:38;4.15;;;3.78;;
20090;SDS011;10205;49.678;6.560;2022-07-25T05:04:05;3.60;;;3.30;;
20090;SDS011;10205;49.678;6.560;2022-07-25T05:06:33;3.50;;;3.20;;
20090;SDS011;10205;49.678;6.560;2022-07-25T05:09:00;4.30;;;3.70;;
20090;SDS011;10205;49.678;6.560;2022-07-25T05:11:28;3.97;;;3.45;;
20090;SDS011;10205;49.678;6.560;2022-07-25T05:13:56;3.83;;;3.40;;
20090;SDS011;10205;49.678;6.560;2022-07-25T05:16:24;4.00;;;3.70;;
20090;SDS011;10205;49.678;6.560;2022-07-25T05:18:51;4.18;;;3.78;;
20090;SDS011;10205;49.678;6.560;2022-07-25T05:21:18;4.00;;;3.60;;
20090;SDS011;10205;49.678;6.560;2022-07-25T05:23:47;4.22;;;3.90;;
20090;SDS011;10205;49.678;6.560;2022-07-25T05:26:14;3.83;;;3.53;;
20090;SDS011;10205;49.678;6.560;2022-07-25T05:28:42;3.72;;;3.42;;
20090;SDS011;10205;49.678;6.560;2022-07-25T05:31:10;3.92;;;3.53;;
20090;SDS011;10205;49.678;6.560;2022-07-25T05:33:38;4.05;;;3.65;;
20090;SDS011;10205;49.678;6.560;2022-07-25T05:36:11;3.80;;;3.50;;
20090;SDS011;10205;49.678;6.560;2022-07-25T05:38:38;4.93;;;3.95;;
20090;SDS011;10205;49.678;6.560;2022-07-25T05:41:10;4.10;;;3.70;;
20090;SDS011;10205;49.678;6.560;2022-07-25T05:43:38;4.32;;;3.92;;
20090;SDS011;10205;49.678;6.560;2022-07-25T05:46:11;4.03;;;3.72;;
20090;SDS011;10205;49.678;6.560;2022-07-25T05:48:41;3.95;;;3.65;;
20090;SDS011;10205;49.678;6.560;2022-07-25T05:51:09;3.80;;;3.42;;
20090;SDS011;10205;49.678;6.560;2022-07-25T05:53:36;3.80;;;3.50;;
20090;SDS011;10205;49.678;6.560;2022-07-25T05:56:04;4.45;;;4.05;;
20090;SDS011;10205;49.678;6.560;2022-07-25T05:58:34;5.38;;;4.03;;
20090;SDS011;10205;49.678;6.560;2022-07-25T06:01:04;4.75;;;4.30;;
20090;SDS011;10205;49.678;6.560;2022-07-25T06:03:34;4.60;;;4.20;;
20090;SDS011;10205;49.678;6.560;2022-07-25T06:06:01;4.05;;;3.75;;
20090;SDS011;10205;49.678;6.560;2022-07-25T06:08:29;4.15;;;3.85;;
20090;SDS011;10205;49.678;6.560;2022-07-25T06:11:00;5.07;;;4.63;;
20090;SDS011;10205;49.678;6.560;2022-07-25T06:13:29;4.85;;;4.40;;
20090;SDS011;10205;49.678;6.560;2022-07-25T06:15:57;4.68;;;4.28;;
20090;SDS011;10205;49.678;6.560;2022-07-25T06:18:26;4.00;;;3.70;;
20090;SDS011;10205;49.678;6.560;2022-07-25T06:20:57;7.50;;;4.97;;
20090;SDS011;10205;49.678;6.560;2022-07-25T06:23:25;6.47;;;5.20;;
20090;SDS011;10205;49.678;6.560;2022-07-25T06:25:54;5.55;;;4.82;;
20090;SDS011;10205;49.678;6.560;2022-07-25T06:28:21;5.63;;;5.05;;
20090;SDS011;10205;49.678;6.560;2022-07-25T06:30:51;5.63;;;4.80;;
20090;SDS011;10205;49.678;6.560;2022-07-25T06:33:19;5.18;;;4.68;;
20090;SDS011;10205;49.678;6.560;2022-07-25T06:35:46;6.22;;;4.78;;
20090;SDS011;10205;49.678;6.560;2022-07-25T06:38:15;5.15;;;4.50;;
20090;SDS011;10205;49.678;6.560;2022-07-25T06:40:43;8.95;;;5.50;;
20090;SDS011;10205;49.678;6.560;2022-07-25T06:43:11;9.07;;;4.70;;
20090;SDS011;10205;49.678;6.560;2022-07-25T06:45:38;9.32;;;4.45;;
20090;SDS011;10205;49.678;6.560;2022-07-25T06:48:07;6.60;;;4.97;;
20090;SDS011;10205;49.678;6.560;2022-07-25T06:50:35;5.82;;;4.90;;
20090;SDS011;10205;49.678;6.560;2022-07-25T06:53:02;5.60;;;4.82;;
20090;SDS011;10205;49.678;6.560;2022-07-25T06:55:34;5.10;;;4.60;;
20090;SDS011;10205;49.678;6.560;2022-07-25T06:58:02;6.65;;;4.63;;
20090;SDS011;10205;49.678;6.560;2022-07-25T07:00:29;4.72;;;4.25;;
20090;SDS011;10205;49.678;6.560;2022-07-25T07:02:58;5.85;;;4.43;;
20090;SDS011;10205;49.678;6.560;2022-07-25T07:05:28;8.35;;;5.10;;
20090;SDS011;10205;49.678;6.560;2022-07-25T07:07:58;5.25;;;4.80;;
20090;SDS011;10205;49.678;6.560;2022-07-25T07:10:26;11.02;;;5.15;;
20090;SDS011;10205;49.678;6.560;2022-07-25T07:13:05;6.18;;;5.07;;
20090;SDS011;10205;49.678;6.560;2022-07-25T07:15:36;7.07;;;5.22;;
20090;SDS011;10205;49.678;6.560;2022-07-25T07:18:05;5.95;;;5.43;;
20090;SDS011;10205;49.678;6.560;2022-07-25T07:20:33;6.93;;;5.35;;
20090;SDS011;10205;49.678;6.560;2022-07-25T07:23:01;4.93;;;4.43;;
20090;SDS011;10205;49.678;6.560;2022-07-25T07:25:28;5.32;;;4.82;;
20090;SDS011;10205;49.678;6.560;2022-07-25T07:27:56;6.00;;;5.40;;
20090;SDS011;10205;49.678;6.560;2022-07-25T07:30:24;7.45;;;5.18;;
20090;SDS011;10205;49.678;6.560;2022-07-25T07:32:52;6.35;;;4.78;;
20090;SDS011;10205;49.678;6.560;2022-07-25T07:35:19;6.65;;;5.22;;
20090;SDS011;10205;49.678;6.560;2022-07-25T07:37:47;6.78;;;4.85;;
20090;SDS011;10205;49.678;6.560;2022-07-25T07:40:15;5.20;;;4.80;;
20090;SDS011;10205;49.678;6.560;2022-07-25T07:42:44;8.93;;;4.57;;
20090;SDS011;10205;49.678;6.560;2022-07-25T07:45:14;6.88;;;4.82;;
20090;SDS011;10205;49.678;6.560;2022-07-25T07:47:47;6.70;;;5.45;;
20090;SDS011;10205;49.678;6.560;2022-07-25T07:50:18;5.10;;;4.57;;
20090;SDS011;10205;49.678;6.560;2022-07-25T07:52:47;5.40;;;4.90;;
20090;SDS011;10205;49.678;6.560;2022-07-25T07:55:16;11.93;;;5.35;;
20090;SDS011;10205;49.678;6.560;2022-07-25T07:58:02;8.25;;;4.80;;
20090;SDS011;10205;49.678;6.560;2022-07-25T08:00:34;5.78;;;5.07;;
20090;SDS011;10205;49.678;6.560;2022-07-25T08:03:05;7.38;;;4.55;;
20090;SDS011;10205;49.678;6.560;2022-07-25T08:05:35;5.55;;;4.95;;
20090;SDS011;10205;49.678;6.560;2022-07-25T08:08:05;6.05;;;4.90;;
20090;SDS011;10205;49.678;6.560;2022-07-25T08:10:35;5.53;;;5.00;;
20090;SDS011;10205;49.678;6.560;2022-07-25T08:13:11;5.82;;;5.30;;
20090;SDS011;10205;49.678;6.560;2022-07-25T08:15:41;5.30;;;4.80;;
20090;SDS011;10205;49.678;6.560;2022-07-25T08:18:13;5.50;;;4.82;;
20090;SDS011;10205;49.678;6.560;2022-07-25T08:20:41;7.00;;;5.20;;
20090;SDS011;10205;49.678;6.560;2022-07-25T08:23:08;4.60;;;4.20;;
20090;SDS011;10205;49.678;6.560;2022-07-25T08:25:36;4.88;;;4.47;;
20090;SDS011;10205;49.678;6.560;2022-07-25T08:28:05;5.82;;;4.63;;
20090;SDS011;10205;49.678;6.560;2022-07-25T08:30:33;4.85;;;4.32;;
20090;SDS011;10205;49.678;6.560;2022-07-25T08:33:04;5.45;;;4.95;;
20090;SDS011;10205;49.678;6.560;2022-07-25T08:35:36;7.65;;;4.53;;
20090;SDS011;10205;49.678;6.560;2022-07-25T08:38:05;5.90;;;4.18;;
20090;SDS011;10205;49.678;6.560;2022-07-25T08:40:35;5.05;;;4.47;;
20090;SDS011;10205;49.678;6.560;2022-07-25T08:43:04;5.95;;;4.82;;
20090;SDS011;10205;49.678;6.560;2022-07-25T08:45:35;4.82;;;4.43;;
20090;SDS011;10205;49.678;6.560;2022-07-25T08:48:10;5.47;;;4.40;;
20090;SDS011;10205;49.678;6.560;2022-07-25T08:50:41;4.60;;;4.15;;
20090;SDS011;10205;49.678;6.560;2022-07-25T08:53:11;6.43;;;4.97;;
20090;SDS011;10205;49.678;6.560;2022-07-25T08:55:43;7.90;;;5.10;;
20090;SDS011;10205;49.678;6.560;2022-07-25T08:58:12;6.47;;;4.90;;
20090;SDS011;10205;49.678;6.560;2022-07-25T09:00:42;6.93;;;4.78;;
20090;SDS011;10205;49.678;6.560;2022-07-25T09:03:11;5.40;;;4.85;;
20090;SDS011;10205;49.678;6.560;2022-07-25T09:05:42;5.15;;;4.65;;
20090;SDS011;10205;49.678;6.560;2022-07-25T09:08:11;5.00;;;4.50;;
20090;SDS011;10205;49.678;6.560;2022-07-25T09:10:44;5.97;;;4.35;;
20090;SDS011;10205;49.678;6.560;2022-07-25T09:13:14;5.68;;;4.93;;
20090;SDS011;10205;49.678;6.560;2022-07-25T09:15:44;5.10;;;4.70;;
20090;SDS011;10205;49.678;6.560;2022-07-25T09:18:16;4.95;;;4.40;;
20090;SDS011;10205;49.678;6.560;2022-07-25T09:20:49;4.93;;;4.50;;
20090;SDS011;10205;49.678;6.560;2022-07-25T09:23:29;6.72;;;4.78;;
20090;SDS011;10205;49.678;6.560;2022-07-25T09:26:02;5.38;;;4.57;;
20090;SDS011;10205;49.678;6.560;2022-07-25T09:28:38;5.38;;;4.85;;
20090;SDS011;10205;49.678;6.560;2022-07-25T09:31:09;5.07;;;4.68;;
20090;SDS011;10205;49.678;6.560;2022-07-25T09:33:43;5.22;;;4.47;;
20090;SDS011;10205;49.678;6.560;2022-07-25T09:36:17;5.05;;;4.63;;
20090;SDS011;10205;49.678;6.560;2022-07-25T09:38:50;5.75;;;4.45;;
20090;SDS011;10205;49.678;6.560;2022-07-25T09:41:18;5.18;;;4.57;;
20090;SDS011;10205;49.678;6.560;2022-07-25T09:43:46;6.60;;;4.43;;
20090;SDS011;10205;49.678;6.560;2022-07-25T09:46:16;5.07;;;4.57;;
20090;SDS011;10205;49.678;6.560;2022-07-25T09:48:43;5.57;;;5.07;;
20090;SDS011;10205;49.678;6.560;2022-07-25T09:51:11;6.25;;;5.40;;
20090;SDS011;10205;49.678;6.560;2022-07-25T09:53:40;5.53;;;4.75;;
20090;SDS011;10205;49.678;6.560;2022-07-25T09:56:08;5.20;;;4.70;;
20090;SDS011;10205;49.678;6.560;2022-07-25T09:58:35;5.28;;;4.78;;
20090;SDS011;10205;49.678;6.560;2022-07-25T10:01:04;5.68;;;4.72;;
20090;SDS011;10205;49.678;6.560;2022-07-25T10:03:36;4.95;;;4.47;;
20090;SDS011;10205;49.678;6.560;2022-07-25T10:06:17;6.10;;;4.97;;
20090;SDS011;10205;49.678;6.560;2022-07-25T10:08:53;5.25;;;4.80;;
20090;SDS011;10205;49.678;6.560;2022-07-25T10:11:22;5.50;;;5.00;;
20090;SDS011;10205;49.678;6.560;2022-07-25T10:13:52;5.20;;;4.70;;
20090;SDS011;10205;49.678;6.560;2022-07-25T10:16:22;5.43;;;4.93;;
20090;SDS011;10205;49.678;6.560;2022-07-25T10:18:52;5.88;;;5.38;;
20090;SDS011;10205;49.678;6.560;2022-07-25T10:21:22;5.50;;;4.93;;
20090;SDS011;10205;49.678;6.560;2022-07-25T10:23:58;5.05;;;4.55;;
20090;SDS011;10205;49.678;6.560;2022-07-25T10:26:28;6.18;;;5.68;;
20090;SDS011;10205;49.678;6.560;2022-07-25T10:28:56;7.28;;;5.22;;
20090;SDS011;10205;49.678;6.560;2022-07-25T10:31:33;6.93;;;4.47;;
20090;SDS011;10205;49.678;6.560;2022-07-25T10:34:05;6.53;;;5.07;;
20090;SDS011;10205;49.678;6.560;2022-07-25T10:36:42;6.35;;;5.50;;
20090;SDS011;10205;49.678;6.560;2022-07-25T10:39:15;5.47;;;5.00;;
20090;SDS011;10205;49.678;6.560;2022-07-25T10:41:48;6.00;;;5.45;;
20090;SDS011;10205;49.678;6.560;2022-07-25T10:44:18;5.50;;;5.00;;
20090;SDS011;10205;49.678;6.560;2022-07-25T10:46:45;5.00;;;4.50;;
20090;SDS011;10205;49.678;6.560;2022-07-25T10:49:17;6.43;;;5.22;;
20090;SDS011;10205;49.678;6.560;2022-07-25T10:51:54;6.85;;;5.30;;
20090;SDS011;10205;49.678;6.560;2022-07-25T10:54:24;5.78;;;5.20;;
20090;SDS011;10205;49.678;6.560;2022-07-25T10:56:58;6.82;;;4.97;;
20090;SDS011;10205;49.678;6.560;2022-07-25T10:59:30;5.32;;;4.82;;
20090;SDS011;10205;49.678;6.560;2022-07-25T11:02:01;5.22;;;4.78;;
20090;SDS011;10205;49.678;6.560;2022-07-25T11:04:33;5.20;;;4.70;;
20090;SDS011;10205;49.678;6.560;2022-07-25T11:07:07;6.35;;;4.95;;
20090;SDS011;10205;49.678;6.560;2022-07-25T11:09:38;11.30;;;5.10;;
20090;SDS011;10205;49.678;6.560;2022-07-25T11:12:08;6.13;;;4.80;;
20090;SDS011;10205;49.678;6.560;2022-07-25T11:14:41;5.00;;;4.55;;
20090;SDS011;10205;49.678;6.560;2022-07-25T11:17:12;5.63;;;4.90;;
20090;SDS011;10205;49.678;6.560;2022-07-25T11:19:43;5.15;;;4.65;;
20090;SDS011;10205;49.678;6.560;2022-07-25T11:22:21;5.05;;;4.55;;
20090;SDS011;10205;49.678;6.560;2022-07-25T11:24:53;4.50;;;4.10;;
20090;SDS011;10205;49.678;6.560;2022-07-25T11:27:25;4.47;;;4.10;;
20090;SDS011;10205;49.678;6.560;2022-07-25T11:30:04;6.20;;;4.40;;
20090;SDS011;10205;49.678;6.560;2022-07-25T11:32:37;4.82;;;4.20;;
20090;SDS011;10205;49.678;6.560;2022-07-25T11:35:07;4.63;;;4.20;;
20090;SDS011;10205;49.678;6.560;2022-07-25T11:37:36;4.90;;;4.50;;
20090;SDS011;10205;49.678;6.560;2022-07-25T11:40:08;4.93;;;4.38;;
20090;SDS011;10205;49.678;6.560;2022-07-25T11:42:39;6.55;;;4.80;;
20090;SDS011;10205;49.678;6.560;2022-07-25T11:45:14;5.45;;;5.05;;
20090;SDS011;10205;49.678;6.560;2022-07-25T11:47:44;5.10;;;4.50;;
20090;SDS011;10205;49.678;6.560;2022-07-25T11:50:15;4.97;;;4.57;;
20090;SDS011;10205;49.678;6.560;2022-07-25T11:52:57;5.55;;;4.95;;
20090;SDS011;10205;49.678;6.560;2022-07-25T11:55:28;4.72;;;4.32;;
20090;SDS011;10205;49.678;6.560;2022-07-25T11:57:58;6.93;;;5.05;;
20090;SDS011;10205;49.678;6.560;2022-07-25T12:00:28;5.32;;;4.75;;
20090;SDS011;10205;49.678;6.560;2022-07-25T12:03:05;5.15;;;4.63;;
20090;SDS011;10205;49.678;6.560;2022-07-25T12:05:35;4.95;;;4.40;;
20090;SDS011;10205;49.678;6.560;2022-07-25T12:08:07;5.47;;;4.97;;
20090;SDS011;10205;49.678;6.560;2022-07-25T12:10:39;6.50;;;3.80;;
20090;SDS011;10205;49.678;6.560;2022-07-25T12:13:08;5.53;;;4.40;;
20090;SDS011;10205;49.678;6.560;2022-07-25T12:15:36;5.22;;;4.72;;
20090;SDS011;10205;49.678;6.560;2022-07-25T12:18:05;4.95;;;4.55;;
20090;SDS011;10205;49.678;6.560;2022-07-25T12:20:36;5.15;;;4.65;;
20090;SDS011;10205;49.678;6.560;2022-07-25T12:23:07;5.35;;;4.50;;
20090;SDS011;10205;49.678;6.560;2022-07-25T12:25:40;4.85;;;4.38;;
20090;SDS011;10205;49.678;6.560;2022-07-25T12:28:09;6.15;;;4.68;;
20090;SDS011;10205;49.678;6.560;2022-07-25T12:30:38;5.13;;;4.63;;
20090;SDS011;10205;49.678;6.560;2022-07-25T12:33:07;4.63;;;4.22;;
20090;SDS011;10205;49.678;6.560;2022-07-25T12:35:37;5.25;;;4.47;;
20090;SDS011;10205;49.678;6.560;2022-07-25T12:38:06;5.38;;;4.88;;
20090;SDS011;10205;49.678;6.560;2022-07-25T12:40:35;7.50;;;4.97;;
20090;SDS011;10205;49.678;6.560;2022-07-25T12:43:05;5.13;;;4.63;;
20090;SDS011;10205;49.678;6.560;2022-07-25T12:45:34;4.85;;;4.45;;
20090;SDS011;10205;49.678;6.560;2022-07-25T12:48:01;6.13;;;5.53;;
20090;SDS011;10205;49.678;6.560;2022-07-25T12:50:29;5.00;;;4.50;;
20090;SDS011;10205;49.678;6.560;2022-07-25T12:52:57;6.32;;;4.70;;
20090;SDS011;10205;49.678;6.560;2022-07-25T12:55:29;4.95;;;4.50;;
20090;SDS011;10205;49.678;6.560;2022-07-25T12:57:57;7.20;;;4.53;;
20090;SDS011;10205;49.678;6.560;2022-07-25T13:00:28;6.97;;;4.60;;
20090;SDS011;10205;49.678;6.560;2022-07-25T13:02:55;5.15;;;4.70;;
20090;SDS011;10205;49.678;6.560;2022-07-25T13:05:24;4.78;;;4.30;;
20090;SDS011;10205;49.678;6.560;2022-07-25T13:07:52;5.97;;;4.55;;
20090;SDS011;10205;49.678;6.560;2022-07-25T13:10:20;5.82;;;4.55;;
20090;SDS011;10205;49.678;6.560;2022-07-25T13:12:49;5.80;;;4.70;;
20090;SDS011;10205;49.678;6.560;2022-07-25T13:15:18;5.40;;;5.00;;
20090;SDS011;10205;49.678;6.560;2022-07-25T13:17:48;5.53;;;4.40;;
20090;SDS011;10205;49.678;6.560;2022-07-25T13:20:16;5.72;;;4.25;;
20090;SDS011;10205;49.678;6.560;2022-07-25T13:22:44;6.07;;;4.15;;
20090;SDS011;10205;49.678;6.560;2022-07-25T13:25:11;3.92;;;3.63;;
20090;SDS011;10205;49.678;6.560;2022-07-25T13:27:39;6.25;;;3.80;;
20090;SDS011;10205;49.678;6.560;2022-07-25T13:30:07;5.07;;;4.03;;
20090;SDS011;10205;49.678;6.560;2022-07-25T13:32:39;6.95;;;3.95;;
20090;SDS011;10205;49.678;6.560;2022-07-25T13:35:09;4.00;;;3.65;;
20090;SDS011;10205;49.678;6.560;2022-07-25T13:37:36;3.80;;;3.40;;
20090;SDS011;10205;49.678;6.560;2022-07-25T13:40:07;3.97;;;3.20;;
20090;SDS011;10205;49.678;6.560;2022-07-25T13:42:37;4.07;;;3.60;;
20090;SDS011;10205;49.678;6.560;2022-07-25T13:45:07;3.85;;;3.47;;
20090;SDS011;10205;49.678;6.560;2022-07-25T13:47:36;4.10;;;3.50;;
20090;SDS011;10205;49.678;6.560;2022-07-25T13:50:04;4.53;;;3.22;;
20090;SDS011;10205;49.678;6.560;2022-07-25T13:52:34;4.00;;;2.90;;
20090;SDS011;10205;49.678;6.560;2022-07-25T13:55:04;3.55;;;2.60;;
20090;SDS011;10205;49.678;6.560;2022-07-25T13:57:34;4.20;;;3.13;;
20090;SDS011;10205;49.678;6.560;2022-07-25T14:00:02;6.32;;;2.75;;
20090;SDS011;10205;49.678;6.560;2022-07-25T14:02:31;2.75;;;2.53;;
20090;SDS011;10205;49.678;6.560;2022-07-25T14:04:59;5.93;;;3.20;;
20090;SDS011;10205;49.678;6.560;2022-07-25T14:07:29;2.83;;;2.63;;
20090;SDS011;10205;49.678;6.560;2022-07-25T14:09:57;3.05;;;2.55;;
20090;SDS011;10205;49.678;6.560;2022-07-25T14:12:24;3.85;;;3.05;;
20090;SDS011;10205;49.678;6.560;2022-07-25T14:14:52;4.63;;;3.00;;
20090;SDS011;10205;49.678;6.560;2022-07-25T14:17:21;2.40;;;2.20;;
20090;SDS011;10205;49.678;6.560;2022-07-25T14:19:51;5.40;;;2.38;;
20090;SDS011;10205;49.678;6.560;2022-07-25T14:22:18;3.55;;;2.45;;
20090;SDS011;10205;49.678;6.560;2022-07-25T14:24:46;3.67;;;2.80;;
20090;SDS011;10205;49.678;6.560;2022-07-25T14:27:15;3.65;;;2.60;;
20090;SDS011;10205;49.678;6.560;2022-07-25T14:29:43;3.00;;;2.20;;
20090;SDS011;10205;49.678;6.560;2022-07-25T14:32:12;6.10;;;2.33;;
20090;SDS011;10205;49.678;6.560;2022-07-25T14:34:39;3.65;;;2.05;;
20090;SDS011;10205;49.678;6.560;2022-07-25T14:37:14;2.10;;;1.90;;
20090;SDS011;10205;49.678;6.560;2022-07-25T14:39:45;3.53;;;2.22;;
20090;SDS011;10205;49.678;6.560;2022-07-25T14:42:16;6.70;;;2.03;;
20090;SDS011;10205;49.678;6.560;2022-07-25T14:44:43;4.32;;;1.92;;
20090;SDS011;10205;49.678;6.560;2022-07-25T14:47:12;6.68;;;1.80;;
20090;SDS011;10205;49.678;6.560;2022-07-25T14:49:40;2.45;;;1.75;;
20090;SDS011;10205;49.678;6.560;2022-07-25T14:52:07;2.17;;;1.60;;
20090;SDS011;10205;49.678;6.560;2022-07-25T14:54:36;2.40;;;2.00;;
20090;SDS011;10205;49.678;6.560;2022-07-25T14:57:05;2.83;;;1.80;;
20090;SDS011;10205;49.678;6.560;2022-07-25T14:59:37;2.22;;;1.60;;
20090;SDS011;10205;49.678;6.560;2022-07-25T15:02:05;4.07;;;1.58;;
20090;SDS011;10205;49.678;6.560;2022-07-25T15:04:32;3.80;;;1.55;;
20090;SDS011;10205;49.678;6.560;2022-07-25T15:07:00;4.05;;;1.65;;
20090;SDS011;10205;49.678;6.560;2022-07-25T15:09:28;1.88;;;1.70;;
20090;SDS011;10205;49.678;6.560;2022-07-25T15:11:56;1.60;;;1.50;;
20090;SDS011;10205;49.678;6.560;2022-07-25T15:14:24;1.65;;;1.33;;
20090;SDS011;10205;49.678;6.560;2022-07-25T15:16:55;2.30;;;1.73;;
20090;SDS011;10205;49.678;6.560;2022-07-25T15:19:22;2.83;;;1.60;;
20090;SDS011;10205;49.678;6.560;2022-07-25T15:21:50;2.00;;;1.30;;
20090;SDS011;10205;49.678;6.560;2022-07-25T15:24:17;1.95;;;1.42;;
20090;SDS011;10205;49.678;6.560;2022-07-25T15:26:44;2.63;;;1.63;;
20090;SDS011;10205;49.678;6.560;2022-07-25T15:29:14;2.92;;;1.52;;
20090;SDS011;10205;49.678;6.560;2022-07-25T15:31:44;3.90;;;1.50;;
20090;SDS011;10205;49.678;6.560;2022-07-25T15:34:14;5.07;;;1.55;;
20090;SDS011;10205;49.678;6.560;2022-07-25T15:36:42;3.00;;;1.40;;
20090;SDS011;10205;49.678;6.560;2022-07-25T15:39:09;2.95;;;1.40;;
20090;SDS011;10205;49.678;6.560;2022-07-25T15:41:37;2.53;;;1.60;;
20090;SDS011;10205;49.678;6.560;2022-07-25T15:44:07;3.10;;;1.38;;
20090;SDS011;10205;49.678;6.560;2022-07-25T15:46:36;3.92;;;1.58;;
20090;SDS011;10205;49.678;6.560;2022-07-25T15:49:06;2.92;;;1.38;;
20090;SDS011;10205;49.678;6.560;2022-07-25T15:51:35;2.38;;;1.10;;
20090;SDS011;10205;49.678;6.560;2022-07-25T15:54:05;4.00;;;1.50;;
20090;SDS011;10205;49.678;6.560;2022-07-25T15:56:33;4.55;;;1.40;;
20090;SDS011;10205;49.678;6.560;2022-07-25T15:59:05;4.22;;;1.75;;
20090;SDS011;10205;49.678;6.560;2022-07-25T16:01:35;2.90;;;1.40;;
20090;SDS011;10205;49.678;6.560;2022-07-25T16:04:03;2.38;;;1.30;;
20090;SDS011;10205;49.678;6.560;2022-07-25T16:06:33;2.45;;;1.55;;
20090;SDS011;10205;49.678;6.560;2022-07-25T16:09:02;5.82;;;1.23;;
20090;SDS011;10205;49.678;6.560;2022-07-25T16:11:31;1.55;;;1.08;;
20090;SDS011;10205;49.678;6.560;2022-07-25T16:14:02;1.98;;;1.27;;
20090;SDS011;10205;49.678;6.560;2022-07-25T16:16:29;1.88;;;1.27;;
20090;SDS011;10205;49.678;6.560;2022-07-25T16:18:58;6.43;;;1.35;;
20090;SDS011;10205;49.678;6.560;2022-07-25T16:21:26;3.75;;;1.30;;
20090;SDS011;10205;49.678;6.560;2022-07-25T16:23:55;5.32;;;1.35;;
20090;SDS011;10205;49.678;6.560;2022-07-25T16:26:24;2.15;;;1.30;;
20090;SDS011;10205;49.678;6.560;2022-07-25T16:28:53;2.35;;;1.33;;
20090;SDS011;10205;49.678;6.560;2022-07-25T16:31:20;3.70;;;1.15;;
20090;SDS011;10205;49.678;6.560;2022-07-25T16:33:48;3.20;;;1.42;;
20090;SDS011;10205;49.678;6.560;2022-07-25T16:36:15;3.80;;;1.25;;
20090;SDS011;10205;49.678;6.560;2022-07-25T16:38:44;1.35;;;1.05;;
20090;SDS011;10205;49.678;6.560;2022-07-25T16:41:13;2.75;;;1.50;;
20090;SDS011;10205;49.678;6.560;2022-07-25T16:43:41;2.28;;;1.33;;
20090;SDS011;10205;49.678;6.560;2022-07-25T16:46:10;2.00;;;1.30;;
20090;SDS011;10205;49.678;6.560;2022-07-25T16:48:39;2.13;;;1.45;;
20090;SDS011;10205;49.678;6.560;2022-07-25T16:51:07;1.75;;;1.23;;
20090;SDS011;10205;49.678;6.560;2022-07-25T16:53:34;1.63;;;1.02;;
20090;SDS011;10205;49.678;6.560;2022-07-25T16:56:02;1.48;;;1.35;;
20090;SDS011;10205;49.678;6.560;2022-07-25T16:58:32;2.10;;;1.30;;
20090;SDS011;10205;49.678;6.560;2022-07-25T17:01:01;2.05;;;1.20;;
20090;SDS011;10205;49.678;6.560;2022-07-25T17:03:29;2.05;;;1.00;;
20090;SDS011;10205;49.678;6.560;2022-07-25T17:05:59;2.35;;;1.23;;
20090;SDS011;10205;49.678;6.560;2022-07-25T17:08:27;2.10;;;1.23;;
20090;SDS011;10205;49.678;6.560;2022-07-25T17:10:55;1.70;;;1.25;;
20090;SDS011;10205;49.678;6.560;2022-07-25T17:13:23;1.27;;;1.08;;
20090;SDS011;10205;49.678;6.560;2022-07-25T17:15:50;3.45;;;1.10;;
20090;SDS011;10205;49.678;6.560;2022-07-25T17:18:19;1.52;;;1.00;;
20090;SDS011;10205;49.678;6.560;2022-07-25T17:20:47;4.35;;;1.20;;
20090;SDS011;10205;49.678;6.560;2022-07-25T17:23:17;2.30;;;1.20;;
20090;SDS011;10205;49.678;6.560;2022-07-25T17:25:45;2.35;;;1.42;;
20090;SDS011;10205;49.678;6.560;2022-07-25T17:28:12;2.00;;;1.02;;
20090;SDS011;10205;49.678;6.560;2022-07-25T17:30:40;2.60;;;1.05;;
20090;SDS011;10205;49.678;6.560;2022-07-25T17:33:07;1.38;;;1.02;;
20090;SDS011;10205;49.678;6.560;2022-07-25T17:35:36;1.02;;;0.93;;
20090;SDS011;10205;49.678;6.560;2022-07-25T17:38:06;0.90;;;0.70;;
20090;SDS011;10205;49.678;6.560;2022-07-25T17:40:34;2.85;;;1.23;;
20090;SDS011;10205;49.678;6.560;2022-07-25T17:43:02;1.13;;;1.00;;
20090;SDS011;10205;49.678;6.560;2022-07-25T17:45:29;2.13;;;1.17;;
20090;SDS011;10205;49.678;6.560;2022-07-25T17:47:59;1.20;;;1.00;;
20090;SDS011;10205;49.678;6.560;2022-07-25T17:50:26;2.03;;;1.35;;
20090;SDS011;10205;49.678;6.560;2022-07-25T17:52:57;1.20;;;1.10;;
20090;SDS011;10205;49.678;6.560;2022-07-25T17:55:25;1.77;;;1.00;;
20090;SDS011;10205;49.678;6.560;2022-07-25T17:57:53;1.10;;;1.00;;
20090;SDS011;10205;49.678;6.560;2022-07-25T18:00:22;2.75;;;1.17;;
20090;SDS011;10205;49.678;6.560;2022-07-25T18:02:51;1.20;;;1.10;;
20090;SDS011;10205;49.678;6.560;2022-07-25T18:05:19;1.70;;;1.17;;
20090;SDS011;10205;49.678;6.560;2022-07-25T18:07:46;1.23;;;1.13;;
20090;SDS011;10205;49.678;6.560;2022-07-25T18:10:16;1.20;;;1.08;;
20090;SDS011;10205;49.678;6.560;2022-07-25T18:12:45;3.75;;;1.40;;
20090;SDS011;10205;49.678;6.560;2022-07-25T18:15:13;1.20;;;1.05;;
20090;SDS011;10205;49.678;6.560;2022-07-25T18:17:41;1.90;;;1.00;;
20090;SDS011;10205;49.678;6.560;2022-07-25T18:20:09;1.92;;;1.25;;
20090;SDS011;10205;49.678;6.560;2022-07-25T18:22:38;1.80;;;1.25;;
20090;SDS011;10205;49.678;6.560;2022-07-25T18:25:06;1.70;;;1.10;;
20090;SDS011;10205;49.678;6.560;2022-07-25T18:27:37;2.28;;;1.20;;
20090;SDS011;10205;49.678;6.560;2022-07-25T18:30:07;1.83;;;1.00;;
20090;SDS011;10205;49.678;6.560;2022-07-25T18:32:35;1.60;;;1.30;;
20090;SDS011;10205;49.678;6.560;2022-07-25T18:35:05;1.55;;;0.98;;
20090;SDS011;10205;49.678;6.560;2022-07-25T18:37:34;1.50;;;1.33;;
20090;SDS011;10205;49.678;6.560;2022-07-25T18:40:03;1.17;;;1.00;;
20090;SDS011;10205;49.678;6.560;2022-07-25T18:42:32;1.20;;;1.08;;
20090;SDS011;10205;49.678;6.560;2022-07-25T18:45:02;1.92;;;1.27;;
20090;SDS011;10205;49.678;6.560;2022-07-25T18:47:31;2.00;;;1.40;;
20090;SDS011;10205;49.678;6.560;2022-07-25T18:49:59;1.33;;;1.23;;